createdAt,value
2017-08-17T00:00:27.448Z,18.76
2017-08-17T00:02:55.755Z,19.80
2017-08-17T00:05:24.035Z,18.24
2017-08-17T00:07:52.384Z,19.80
2017-08-17T00:10:20.650Z,19.82
2017-08-17T00:12:48.925Z,18.66
2017-08-17T00:15:17.220Z,17.34
2017-08-17T00:17:45.484Z,19.00
2017-08-17T00:20:13.788Z,19.48
2017-08-17T00:22:42.060Z,19.58
2017-08-17T00:25:10.324Z,18.66
2017-08-17T00:27:38.622Z,16.38
2017-08-17T00:30:06.915Z,18.02
2017-08-17T00:32:35.180Z,17.58
2017-08-17T00:35:03.488Z,19.52
2017-08-17T00:37:31.758Z,18.46
2017-08-17T00:40:00.024Z,17.94
2017-08-17T00:42:28.312Z,19.06
2017-08-17T00:44:56.579Z,18.24
2017-08-17T00:47:24.880Z,18.64
2017-08-17T00:49:53.144Z,19.60
2017-08-17T00:52:21.447Z,19.14
2017-08-17T00:54:49.710Z,18.06
2017-08-17T00:57:17.982Z,19.20
2017-08-17T00:59:46.269Z,17.48
2017-08-17T01:02:14.536Z,18.16
2017-08-17T01:04:42.834Z,17.38
2017-08-17T01:07:11.142Z,19.06
2017-08-17T01:09:39.408Z,17.74
2017-08-17T01:12:07.718Z,17.50
2017-08-17T01:14:36.020Z,18.64
2017-08-17T01:17:04.312Z,17.24
2017-08-17T01:19:32.571Z,18.26
2017-08-17T01:22:00.863Z,18.06
2017-08-17T01:24:29.149Z,18.90
2017-08-17T01:26:57.413Z,16.06
2017-08-17T01:29:25.708Z,17.38
2017-08-17T01:31:53.967Z,18.26
2017-08-17T01:34:22.274Z,16.66
2017-08-17T01:36:49.767Z,16.50
2017-08-17T01:39:18.054Z,17.28
2017-08-17T01:41:46.332Z,16.72
2017-08-17T01:44:14.626Z,17.10
2017-08-17T01:46:42.928Z,17.04
2017-08-17T01:49:11.207Z,18.36
2017-08-17T01:51:39.495Z,16.20
2017-08-17T01:54:07.761Z,18.76
2017-08-17T01:56:36.060Z,17.14
2017-08-17T01:59:04.336Z,16.94
2017-08-17T02:01:32.633Z,17.38
2017-08-17T02:04:00.916Z,16.90
2017-08-17T02:06:29.185Z,17.12
2017-08-17T02:08:57.467Z,17.10
2017-08-17T02:11:25.724Z,17.14
2017-08-17T02:13:54.004Z,18.22
2017-08-17T02:16:22.287Z,17.20
2017-08-17T02:18:50.583Z,20.14
2017-08-17T02:21:18.838Z,19.34
2017-08-17T02:23:47.120Z,19.60
2017-08-17T02:26:15.382Z,19.06
2017-08-17T02:28:43.721Z,19.96
2017-08-17T02:31:11.983Z,18.94
2017-08-17T02:33:40.238Z,20.40
2017-08-17T02:36:09.505Z,20.02
2017-08-17T02:38:37.777Z,21.40
2017-08-17T02:41:06.083Z,20.96
2017-08-17T02:43:34.340Z,21.64
2017-08-17T02:46:02.620Z,21.52
2017-08-17T02:48:30.897Z,20.70
2017-08-17T02:50:59.167Z,19.56
2017-08-17T02:53:27.445Z,21.22
2017-08-17T02:55:55.722Z,19.82
2017-08-17T02:58:23.985Z,21.84
2017-08-17T03:00:52.275Z,19.40
2017-08-17T03:03:20.539Z,22.14
2017-08-17T03:05:48.816Z,22.54
2017-08-17T03:08:17.088Z,21.40
2017-08-17T03:10:45.357Z,22.40
2017-08-17T03:13:13.637Z,19.64
2017-08-17T03:15:41.906Z,21.96
2017-08-17T03:18:10.192Z,19.84
2017-08-17T03:20:38.463Z,22.20
2017-08-17T03:23:06.754Z,22.96
2017-08-17T03:25:34.264Z,20.72
2017-08-17T03:28:02.527Z,22.02
2017-08-17T03:30:30.841Z,22.78
2017-08-17T03:32:59.099Z,21.78
2017-08-17T03:35:27.359Z,21.10
2017-08-17T03:37:55.636Z,20.76
2017-08-17T03:40:23.900Z,19.78
2017-08-17T03:42:52.204Z,19.56
2017-08-17T03:45:20.471Z,21.10
2017-08-17T03:47:48.755Z,21.32
2017-08-17T03:50:17.031Z,21.02
2017-08-17T03:52:45.304Z,22.06
2017-08-17T03:55:13.595Z,23.00
2017-08-17T03:57:41.860Z,22.16
2017-08-17T04:00:10.147Z,22.20
2017-08-17T04:02:38.403Z,20.30
2017-08-17T04:05:06.698Z,21.04
2017-08-17T04:07:34.965Z,22.10
2017-08-17T04:10:03.271Z,21.22
2017-08-17T04:12:31.531Z,21.70
2017-08-17T04:14:59.792Z,21.78
2017-08-17T04:17:28.089Z,21.36
2017-08-17T04:19:56.352Z,21.62
2017-08-17T04:22:24.643Z,22.96
2017-08-17T04:24:52.899Z,20.64
2017-08-17T04:27:21.194Z,20.52
2017-08-17T04:29:49.453Z,20.78
2017-08-17T04:32:17.764Z,19.82
2017-08-17T04:34:46.027Z,21.78
2017-08-17T04:37:14.287Z,19.92
2017-08-17T04:39:42.581Z,22.24
2017-08-17T04:42:10.841Z,19.76
2017-08-17T04:44:39.136Z,22.18
2017-08-17T04:47:07.432Z,21.74
2017-08-17T04:49:35.693Z,22.34
2017-08-17T04:52:11.813Z,21.66
2017-08-17T04:54:40.078Z,21.98
2017-08-17T04:57:35.120Z,20.34
2017-08-17T05:00:04.341Z,22.12
2017-08-17T05:02:32.635Z,21.82
2017-08-17T05:05:00.980Z,21.14
2017-08-17T05:07:28.472Z,21.02
2017-08-17T05:09:56.722Z,21.88
2017-08-17T05:12:25.021Z,22.30
2017-08-17T05:14:53.281Z,21.28
2017-08-17T05:17:21.563Z,22.44
2017-08-17T05:19:49.060Z,24.76
2017-08-17T05:22:17.357Z,22.20
2017-08-17T05:24:45.621Z,23.72
2017-08-17T05:27:13.939Z,25.88
2017-08-17T05:29:42.200Z,21.38
2017-08-17T05:32:10.472Z,23.42
2017-08-17T05:34:38.759Z,22.42
2017-08-17T05:37:07.052Z,20.92
2017-08-17T05:39:35.313Z,21.26
2017-08-17T05:42:03.599Z,22.60
2017-08-17T05:44:31.897Z,23.34
2017-08-17T05:47:00.194Z,21.30
2017-08-17T05:49:28.489Z,21.62
2017-08-17T05:51:56.757Z,22.12
2017-08-17T05:54:25.071Z,21.22
2017-08-17T05:56:52.558Z,21.10
2017-08-17T05:59:20.822Z,20.94
2017-08-17T06:01:49.118Z,20.70
2017-08-17T06:04:17.385Z,19.72
2017-08-17T06:06:45.687Z,20.58
2017-08-17T06:09:13.955Z,19.42
2017-08-17T06:11:42.783Z,19.32
2017-08-17T06:14:11.069Z,19.46
2017-08-17T06:16:39.364Z,20.60
2017-08-17T06:19:07.670Z,20.36
2017-08-17T06:21:35.956Z,18.46
2017-08-17T06:24:04.223Z,18.88
2017-08-17T06:26:32.528Z,18.36
2017-08-17T06:29:00.815Z,18.08
2017-08-17T06:31:29.085Z,19.58
2017-08-17T06:33:57.403Z,18.82
2017-08-17T06:36:25.664Z,18.18
2017-08-17T06:38:53.928Z,17.62
2017-08-17T06:41:22.215Z,17.58
2017-08-17T06:43:50.481Z,18.58
2017-08-17T06:46:18.783Z,17.74
2017-08-17T06:48:47.055Z,18.00
2017-08-17T06:51:15.344Z,18.46
2017-08-17T06:53:43.614Z,17.78
2017-08-17T06:56:11.911Z,17.08
2017-08-17T06:58:40.185Z,18.74
2017-08-17T07:01:08.455Z,20.12
2017-08-17T07:03:36.758Z,17.42
2017-08-17T07:06:05.020Z,17.60
2017-08-17T07:08:33.335Z,17.02
2017-08-17T07:11:01.604Z,17.02
2017-08-17T07:13:29.868Z,17.24
2017-08-17T07:15:58.172Z,16.06
2017-08-17T07:18:26.439Z,16.38
2017-08-17T07:20:54.759Z,15.48
2017-08-17T07:23:23.043Z,15.46
2017-08-17T07:25:51.309Z,13.28
2017-08-17T07:28:19.626Z,15.44
2017-08-17T07:30:47.892Z,15.46
2017-08-17T07:33:16.163Z,14.56
2017-08-17T07:35:44.466Z,14.10
2017-08-17T07:38:12.771Z,13.86
2017-08-17T07:40:41.032Z,14.82
2017-08-17T07:43:09.343Z,13.54
2017-08-17T07:45:37.607Z,15.08
2017-08-17T07:48:05.104Z,14.64
2017-08-17T07:50:33.400Z,12.40
2017-08-17T07:53:01.677Z,14.02
2017-08-17T07:55:30.006Z,13.36
2017-08-17T07:57:58.263Z,13.30
2017-08-17T08:00:26.526Z,13.28
2017-08-17T08:02:54.824Z,13.62
2017-08-17T08:05:23.123Z,13.84
2017-08-17T08:07:51.445Z,13.48
2017-08-17T08:10:19.711Z,12.28
2017-08-17T08:12:47.984Z,12.28
2017-08-17T08:15:16.278Z,13.26
2017-08-17T08:17:44.550Z,12.36
2017-08-17T08:20:12.839Z,12.38
2017-08-17T08:22:41.100Z,12.00
2017-08-17T08:25:09.407Z,10.36
2017-08-17T08:27:37.679Z,10.56
2017-08-17T08:30:05.945Z,8.00
2017-08-17T08:32:34.236Z,9.02
2017-08-17T08:35:03.448Z,8.56
2017-08-17T08:37:31.732Z,7.98
2017-08-17T08:39:59.264Z,8.48
2017-08-17T08:42:27.585Z,7.42
2017-08-17T08:44:55.887Z,6.88
2017-08-17T08:47:24.144Z,7.46
2017-08-17T08:49:52.443Z,7.18
2017-08-17T08:52:20.717Z,8.10
2017-08-17T08:54:50.923Z,8.34
2017-08-17T08:57:19.243Z,8.46
2017-08-17T08:59:47.524Z,7.62
2017-08-17T09:02:15.792Z,7.02
2017-08-17T09:04:44.089Z,7.66
2017-08-17T09:07:12.369Z,7.62
2017-08-17T09:09:40.667Z,8.82
2017-08-17T09:12:08.931Z,7.50
2017-08-17T09:14:37.227Z,6.98
2017-08-17T09:17:05.497Z,8.58
2017-08-17T09:19:32.996Z,7.82
2017-08-17T09:22:01.288Z,7.96
2017-08-17T09:24:29.583Z,7.56
2017-08-17T09:26:57.856Z,7.80
2017-08-17T09:29:26.125Z,7.48
2017-08-17T09:31:54.431Z,8.08
2017-08-17T09:34:22.689Z,7.56
2017-08-17T09:36:50.977Z,7.90
2017-08-17T09:39:19.272Z,7.62
2017-08-17T09:41:47.535Z,7.08
2017-08-17T09:44:15.847Z,6.04
2017-08-17T09:46:44.103Z,7.18
2017-08-17T09:49:12.404Z,6.66
2017-08-17T09:51:40.677Z,7.42
2017-08-17T09:54:08.940Z,7.84
2017-08-17T09:56:37.236Z,7.40
2017-08-17T09:59:05.510Z,8.22
2017-08-17T10:01:33.796Z,7.52
2017-08-17T10:04:02.060Z,8.42
2017-08-17T10:06:30.351Z,8.46
2017-08-17T10:08:58.672Z,8.78
2017-08-17T10:11:26.940Z,8.32
2017-08-17T10:13:55.204Z,10.70
2017-08-17T10:16:22.731Z,8.72
2017-08-17T10:18:51.038Z,8.82
2017-08-17T10:21:19.335Z,9.22
2017-08-17T10:23:47.608Z,8.08
2017-08-17T10:26:15.899Z,8.94
2017-08-17T10:28:43.423Z,8.46
2017-08-17T10:31:11.686Z,8.90
2017-08-17T10:33:40.001Z,8.60
2017-08-17T10:36:08.265Z,8.78
2017-08-17T10:38:36.519Z,8.40
2017-08-17T10:41:04.863Z,8.56
2017-08-17T10:43:33.139Z,7.68
2017-08-17T10:46:01.404Z,7.48
2017-08-17T10:48:29.695Z,7.56
2017-08-17T10:50:57.196Z,7.30
2017-08-17T10:53:25.492Z,7.06
2017-08-17T10:55:53.751Z,6.56
2017-08-17T10:58:22.022Z,7.00
2017-08-17T11:00:50.319Z,5.62
2017-08-17T11:03:18.635Z,5.98
2017-08-17T11:05:46.895Z,6.66
2017-08-17T11:08:15.168Z,6.32
2017-08-17T11:10:43.459Z,5.10
2017-08-17T11:13:11.721Z,5.88
2017-08-17T11:15:40.017Z,5.96
2017-08-17T11:18:08.335Z,5.54
2017-08-17T11:20:36.597Z,5.12
2017-08-17T11:23:04.863Z,6.18
2017-08-17T11:25:33.154Z,5.64
2017-08-17T11:28:01.456Z,5.74
2017-08-17T11:30:29.732Z,5.84
2017-08-17T11:32:58.001Z,5.16
2017-08-17T11:35:26.283Z,4.50
2017-08-17T11:37:54.547Z,4.92
2017-08-17T11:40:22.851Z,4.82
2017-08-17T11:42:51.125Z,3.70
2017-08-17T11:45:19.415Z,4.72
2017-08-17T11:47:47.675Z,4.82
2017-08-17T11:50:15.991Z,4.02
2017-08-17T11:52:44.264Z,3.40
2017-08-17T11:55:12.524Z,4.00
2017-08-17T11:57:40.813Z,3.92
2017-08-17T12:00:09.075Z,4.06
2017-08-17T12:02:37.363Z,4.60
2017-08-17T12:05:05.635Z,3.52
2017-08-17T12:07:33.932Z,3.56
2017-08-17T12:10:02.217Z,3.80
2017-08-17T12:12:30.481Z,4.44
2017-08-17T12:14:58.784Z,3.80
2017-08-17T12:17:27.052Z,4.10
2017-08-17T12:19:55.356Z,3.94
2017-08-17T12:22:23.652Z,4.24
2017-08-17T12:24:51.150Z,4.02
2017-08-17T12:27:19.403Z,4.38
2017-08-17T12:29:47.686Z,4.10
2017-08-17T12:32:15.978Z,3.90
2017-08-17T12:34:44.227Z,4.02
2017-08-17T12:37:12.486Z,3.88
2017-08-17T12:39:40.771Z,3.56
2017-08-17T12:42:09.048Z,4.00
2017-08-17T12:44:36.594Z,3.54
2017-08-17T12:47:04.856Z,3.42
2017-08-17T12:49:33.120Z,3.94
2017-08-17T12:52:01.430Z,3.58
2017-08-17T12:54:29.690Z,3.62
2017-08-17T12:56:57.944Z,3.44
2017-08-17T12:59:26.241Z,3.76
2017-08-17T13:01:54.491Z,4.12
2017-08-17T13:04:22.746Z,5.06
2017-08-17T13:06:51.052Z,4.12
2017-08-17T13:09:18.540Z,4.78
2017-08-17T13:11:46.799Z,5.14
2017-08-17T13:14:15.090Z,4.70
2017-08-17T13:16:43.349Z,4.22
2017-08-17T13:19:11.635Z,4.82
2017-08-17T13:21:39.916Z,5.66
2017-08-17T13:24:08.207Z,4.72
2017-08-17T13:26:36.461Z,4.70
2017-08-17T13:29:04.723Z,4.52
2017-08-17T13:31:33.021Z,4.74
2017-08-17T13:34:01.277Z,5.08
2017-08-17T13:36:29.556Z,4.80
2017-08-17T13:38:57.868Z,4.28
2017-08-17T13:41:26.177Z,4.70
2017-08-17T13:43:54.438Z,4.86
2017-08-17T13:46:22.695Z,4.78
2017-08-17T13:48:51.004Z,4.46
2017-08-17T13:51:19.260Z,5.48
2017-08-17T13:53:47.512Z,4.60
2017-08-17T13:56:15.806Z,4.86
2017-08-17T13:58:44.063Z,5.86
2017-08-17T14:01:12.377Z,4.22
2017-08-17T14:03:40.652Z,5.48
2017-08-17T14:06:08.911Z,5.56
2017-08-17T14:08:36.432Z,4.44
2017-08-17T14:11:04.730Z,5.44
2017-08-17T14:13:33.017Z,4.54
2017-08-17T14:16:01.347Z,4.34
2017-08-17T14:18:29.623Z,4.22
2017-08-17T14:20:57.922Z,5.02
2017-08-17T14:23:26.209Z,3.72
2017-08-17T14:25:54.473Z,4.40
2017-08-17T14:28:22.764Z,4.80
2017-08-17T14:30:51.088Z,4.22
2017-08-17T14:33:19.357Z,5.16
2017-08-17T14:35:47.621Z,4.64
2017-08-17T14:38:15.932Z,4.30
2017-08-17T14:40:44.199Z,4.70
2017-08-17T14:43:12.463Z,4.08
2017-08-17T14:45:40.768Z,4.54
2017-08-17T14:48:09.044Z,4.28
2017-08-17T14:50:37.353Z,4.00
2017-08-17T14:53:05.616Z,5.52
2017-08-17T14:55:33.876Z,4.78
2017-08-17T14:58:02.172Z,5.38
2017-08-17T15:00:30.457Z,4.88
2017-08-17T15:02:58.718Z,4.14
2017-08-17T15:05:26.995Z,4.24
2017-08-17T15:07:55.261Z,4.88
2017-08-17T15:10:23.587Z,4.76
2017-08-17T15:12:51.856Z,5.16
2017-08-17T15:15:21.165Z,5.14
2017-08-17T15:17:49.438Z,5.12
2017-08-17T15:20:17.725Z,4.38
2017-08-17T15:22:46.015Z,4.90
2017-08-17T15:25:14.271Z,4.62
2017-08-17T15:27:42.584Z,5.34
2017-08-17T15:30:10.849Z,5.38
2017-08-17T15:32:39.116Z,4.64
2017-08-17T15:35:07.415Z,5.68
2017-08-17T15:37:35.701Z,5.86
2017-08-17T15:40:04.005Z,6.32
2017-08-17T15:42:32.319Z,5.26
2017-08-17T15:45:00.589Z,4.84
2017-08-17T15:47:28.864Z,4.98
2017-08-17T15:49:57.207Z,4.22
2017-08-17T15:52:25.493Z,5.18
2017-08-17T15:54:53.760Z,4.86
2017-08-17T15:57:22.054Z,5.24
2017-08-17T15:59:50.344Z,5.82
2017-08-17T16:02:18.624Z,5.14
2017-08-17T16:04:46.925Z,5.24
2017-08-17T16:07:15.252Z,5.38
2017-08-17T16:09:43.514Z,5.26
2017-08-17T16:12:11.779Z,4.82
2017-08-17T16:14:40.105Z,6.38
2017-08-17T16:17:08.368Z,5.04
2017-08-17T16:19:36.623Z,5.70
2017-08-17T16:22:04.920Z,5.54
2017-08-17T16:24:33.187Z,5.00
2017-08-17T16:27:01.487Z,5.68
2017-08-17T16:29:29.784Z,5.44
2017-08-17T16:31:58.052Z,6.02
2017-08-17T16:34:26.316Z,5.22
2017-08-17T16:36:54.617Z,5.28
2017-08-17T16:39:22.932Z,5.12
2017-08-17T16:41:51.187Z,5.48
2017-08-17T16:44:18.690Z,4.60
2017-08-17T16:46:46.984Z,5.68
2017-08-17T16:49:15.297Z,4.98
2017-08-17T16:51:45.500Z,5.58
2017-08-17T16:54:13.796Z,5.20
2017-08-17T16:56:42.104Z,5.32
2017-08-17T16:59:10.379Z,6.06
2017-08-17T17:01:38.687Z,5.78
2017-08-17T17:04:06.946Z,6.36
2017-08-17T17:06:35.212Z,4.40
2017-08-17T17:09:02.751Z,4.48
2017-08-17T17:11:31.020Z,4.32
2017-08-17T17:13:59.324Z,4.84
2017-08-17T17:16:27.607Z,5.06
2017-08-17T17:18:55.875Z,4.58
2017-08-17T17:21:24.167Z,3.60
2017-08-17T17:23:52.431Z,4.24
2017-08-17T17:26:20.731Z,4.18
2017-08-17T17:28:49.000Z,3.74
2017-08-17T17:31:17.303Z,3.92
2017-08-17T17:33:45.565Z,3.56
2017-08-17T17:36:13.833Z,3.72
2017-08-17T17:38:42.144Z,3.86
2017-08-17T17:41:10.409Z,3.70
2017-08-17T17:43:38.678Z,3.54
2017-08-17T17:46:06.974Z,3.26
2017-08-17T17:48:35.280Z,3.72
2017-08-17T17:51:03.584Z,4.00
2017-08-17T17:53:31.848Z,4.10
2017-08-17T17:56:00.112Z,4.12
2017-08-17T17:58:28.436Z,3.72
2017-08-17T18:00:56.705Z,3.66
2017-08-17T18:03:24.964Z,4.52
2017-08-17T18:05:53.262Z,4.24
2017-08-17T18:08:21.512Z,3.78
2017-08-17T18:10:49.830Z,3.80
2017-08-17T18:13:18.097Z,3.92
2017-08-17T18:15:46.389Z,3.60
2017-08-17T18:18:14.697Z,4.34
2017-08-17T18:20:42.968Z,3.76
2017-08-17T18:23:11.332Z,3.32
2017-08-17T18:25:38.838Z,3.20
2017-08-17T18:28:07.112Z,3.30
2017-08-17T18:30:35.406Z,3.52
2017-08-17T18:33:03.663Z,3.96
2017-08-17T18:35:31.996Z,3.78
2017-08-17T18:37:59.540Z,3.60
2017-08-17T18:40:27.041Z,3.16
2017-08-17T18:42:55.314Z,4.00
2017-08-17T18:45:23.608Z,3.20
2017-08-17T18:47:51.877Z,3.24
2017-08-17T18:50:20.193Z,3.54
2017-08-17T18:52:48.451Z,4.20
2017-08-17T18:55:16.725Z,3.58
2017-08-17T18:57:45.026Z,3.46
2017-08-17T19:00:13.328Z,5.84
2017-08-17T19:02:41.601Z,3.92
2017-08-17T19:05:09.902Z,3.92
2017-08-17T19:07:38.182Z,4.06
2017-08-17T19:10:06.529Z,3.18
2017-08-17T19:12:34.796Z,3.70
2017-08-17T19:15:03.113Z,3.40
2017-08-17T19:17:31.399Z,3.80
2017-08-17T19:19:59.709Z,3.34
2017-08-17T19:22:27.972Z,3.24
2017-08-17T19:24:56.267Z,3.40
2017-08-17T19:27:24.544Z,3.24
2017-08-17T19:29:52.807Z,3.20
2017-08-17T19:32:21.113Z,3.88
2017-08-17T19:34:48.604Z,2.90
2017-08-17T19:37:16.859Z,3.56
2017-08-17T19:39:45.155Z,3.28
2017-08-17T19:42:13.436Z,3.48
2017-08-17T19:44:40.968Z,3.76
2017-08-17T19:47:09.243Z,2.90
2017-08-17T19:49:37.515Z,3.60
2017-08-17T19:52:05.804Z,3.52
2017-08-17T19:54:34.070Z,3.48
2017-08-17T19:57:02.365Z,3.26
2017-08-17T19:59:30.657Z,3.22
2017-08-17T20:01:59.003Z,3.62
2017-08-17T20:04:26.524Z,3.46
2017-08-17T20:06:54.820Z,3.42
2017-08-17T20:09:22.352Z,4.20
2017-08-17T20:11:50.614Z,3.44
2017-08-17T20:14:18.871Z,3.50
2017-08-17T20:16:47.169Z,3.12
2017-08-17T20:19:15.439Z,3.56
2017-08-17T20:21:43.720Z,3.22
2017-08-17T20:24:12.055Z,3.68
2017-08-17T20:26:40.310Z,4.02
2017-08-17T20:29:08.580Z,3.94
2017-08-17T20:31:36.120Z,4.18
2017-08-17T20:34:04.411Z,3.68
2017-08-17T20:36:31.908Z,3.66
2017-08-17T20:39:00.196Z,3.92
2017-08-17T20:41:28.492Z,3.82
2017-08-17T20:43:56.742Z,3.82
2017-08-17T20:46:25.006Z,3.62
2017-08-17T20:48:53.323Z,3.96
2017-08-17T20:51:21.578Z,3.58
2017-08-17T20:53:49.833Z,3.64
2017-08-17T20:56:18.166Z,3.66
2017-08-17T20:58:46.416Z,4.08
2017-08-17T21:01:14.668Z,4.04
2017-08-17T21:03:42.972Z,4.18
2017-08-17T21:06:11.224Z,4.62
2017-08-17T21:08:39.472Z,4.00
2017-08-17T21:11:07.808Z,4.04
2017-08-17T21:13:36.067Z,4.10
2017-08-17T21:16:04.327Z,3.82
2017-08-17T21:18:32.604Z,3.22
2017-08-17T21:21:00.892Z,3.84
2017-08-17T21:23:29.168Z,3.66
2017-08-17T21:28:31.043Z,3.90
2017-08-17T21:30:59.304Z,3.80
2017-08-17T21:33:27.640Z,3.82
2017-08-17T21:35:55.889Z,4.10
2017-08-17T21:38:25.107Z,3.70
2017-08-17T21:40:53.389Z,3.70
2017-08-17T21:43:21.640Z,4.02
2017-08-17T21:45:49.967Z,4.22
2017-08-17T21:48:19.136Z,4.26
2017-08-17T21:50:47.393Z,3.80
2017-08-17T21:53:15.676Z,4.04
2017-08-17T21:55:43.948Z,4.04
2017-08-17T21:58:12.248Z,4.32
2017-08-17T22:00:40.513Z,4.14
2017-08-17T22:03:08.769Z,3.54
2017-08-17T22:05:37.062Z,4.28
2017-08-17T22:08:05.315Z,3.76
2017-08-17T22:10:33.576Z,3.92
2017-08-17T22:13:01.880Z,4.40
2017-08-17T22:15:30.141Z,4.08
2017-08-17T22:17:58.404Z,4.46
2017-08-17T22:20:26.711Z,3.64
2017-08-17T22:22:54.966Z,4.60
2017-08-17T22:25:23.223Z,4.14
2017-08-17T22:27:51.521Z,3.96
2017-08-17T22:30:19.790Z,3.74
2017-08-17T22:32:48.052Z,3.98
2017-08-17T22:35:16.329Z,3.96
2017-08-17T22:37:44.579Z,4.00
2017-08-17T22:40:12.880Z,4.34
2017-08-17T22:42:41.140Z,4.32
2017-08-17T22:45:09.431Z,4.02
2017-08-17T22:47:37.687Z,4.50
2017-08-17T22:50:05.982Z,4.34
2017-08-17T22:52:34.235Z,4.14
2017-08-17T22:55:02.494Z,4.52
2017-08-17T22:57:30.775Z,4.50
2017-08-17T22:59:58.273Z,4.20
2017-08-17T23:02:26.568Z,4.52
2017-08-17T23:04:54.866Z,4.26
2017-08-17T23:07:23.120Z,4.46
2017-08-17T23:09:51.417Z,4.60
2017-08-17T23:12:19.672Z,4.82
2017-08-17T23:14:47.999Z,4.78
2017-08-17T23:17:16.304Z,4.54
2017-08-17T23:19:44.563Z,4.94
2017-08-17T23:22:12.860Z,4.76
2017-08-17T23:24:41.119Z,5.06
2017-08-17T23:27:09.391Z,5.72
2017-08-17T23:29:37.699Z,4.56
2017-08-17T23:32:05.971Z,4.74
2017-08-17T23:34:34.240Z,5.18
2017-08-17T23:37:02.546Z,5.54
2017-08-17T23:39:30.808Z,5.26
2017-08-17T23:41:59.066Z,4.70
2017-08-17T23:44:26.588Z,4.90
2017-08-17T23:46:54.079Z,5.42
2017-08-17T23:49:21.600Z,5.02
2017-08-17T23:51:49.862Z,6.48
2017-08-17T23:54:17.392Z,5.46
2017-08-17T23:56:45.647Z,5.08
2017-08-17T23:59:13.919Z,5.30
